createdAt,value
2023-03-03T00:00:19.451Z,61.93
2023-03-03T00:05:23.171Z,61.80
2023-03-03T00:10:25.772Z,60.27
2023-03-03T00:15:28.938Z,54.20
2023-03-03T00:20:37.041Z,54.17
2023-03-03T00:25:39.365Z,54.57
2023-03-03T00:30:42.365Z,64.50
2023-03-03T00:35:46.212Z,56.23
2023-03-03T00:40:49.604Z,55.43
2023-03-03T00:45:53.618Z,55.33
2023-03-03T00:50:58.325Z,60.90
2023-03-03T00:56:00.949Z,51.30
2023-03-03T01:01:03.421Z,55.03
2023-03-03T01:06:07.829Z,59.63
2023-03-03T01:11:14.351Z,53.90
2023-03-03T01:16:16.863Z,53.83
2023-03-03T01:21:20.443Z,61.27
2023-03-03T01:26:22.692Z,60.63
2023-03-03T01:31:26.325Z,53.20
2023-03-03T01:36:30.827Z,47.40
2023-03-03T01:41:34.660Z,49.43
2023-03-03T01:46:53.886Z,56.63
2023-03-03T01:52:02.696Z,54.73
2023-03-03T01:57:11.828Z,57.90
2023-03-03T02:02:14.232Z,45.70
2023-03-03T02:07:20.152Z,48.60
2023-03-03T02:12:26.781Z,45.80
2023-03-03T02:17:28.833Z,48.27
2023-03-03T02:22:40.363Z,57.17
2023-03-03T02:27:44.125Z,48.43
2023-03-03T02:32:46.403Z,52.37
2023-03-03T02:37:48.811Z,53.50
2023-03-03T02:42:56.069Z,49.30
2023-03-03T02:47:58.349Z,49.70
2023-03-03T02:53:00.783Z,50.27
2023-03-03T02:58:04.372Z,47.17
2023-03-03T03:03:06.462Z,49.33
2023-03-03T03:08:08.806Z,51.40
2023-03-03T03:13:13.123Z,56.93
2023-03-03T03:18:15.502Z,61.70
2023-03-03T03:23:18.404Z,58.87
2023-03-03T03:28:21.921Z,51.57
2023-03-03T03:33:24.316Z,57.60
2023-03-03T03:38:27.726Z,56.30
2023-03-03T03:43:31.324Z,57.83
2023-03-03T03:48:33.425Z,52.07
2023-03-03T03:53:35.764Z,58.30
2023-03-03T03:58:39.293Z,51.57
2023-03-03T04:03:41.621Z,53.23
2023-03-03T04:08:43.887Z,60.53
2023-03-03T04:13:47.659Z,61.73
2023-03-03T04:18:49.751Z,59.50
2023-03-03T04:23:53.480Z,66.30
2023-03-03T04:28:56.956Z,63.57
2023-03-03T04:33:59.205Z,63.80
2023-03-03T04:39:01.740Z,63.33
2023-03-03T04:44:05.343Z,57.57
2023-03-03T04:49:10.801Z,57.40
2023-03-03T04:54:14.203Z,63.80
2023-03-03T04:59:18.678Z,54.57
2023-03-03T05:04:20.793Z,63.87
2023-03-03T05:09:22.944Z,60.13
2023-03-03T05:14:26.346Z,69.17
2023-03-03T05:19:28.743Z,51.97
2023-03-03T05:24:30.968Z,59.43
2023-03-03T05:29:34.950Z,65.53
2023-03-03T05:34:38.270Z,69.97
2023-03-03T05:39:40.789Z,51.87
2023-03-03T05:44:44.369Z,59.37
2023-03-03T05:49:46.617Z,60.80
2023-03-03T05:54:49.148Z,61.40
2023-03-03T05:59:52.896Z,66.30
2023-03-03T06:04:55.318Z,63.50
2023-03-03T06:09:57.608Z,64.53
2023-03-03T06:15:01.345Z,61.53
2023-03-03T06:20:04.350Z,66.30
2023-03-03T06:25:07.635Z,63.53
2023-03-03T06:30:13.074Z,62.93
2023-03-03T06:35:15.208Z,63.13
2023-03-03T06:40:17.691Z,60.63
2023-03-03T06:45:21.680Z,62.53
2023-03-03T06:50:23.809Z,65.47
2023-03-03T06:55:26.306Z,60.60
2023-03-03T07:00:31.388Z,65.37
2023-03-03T07:05:34.664Z,60.40
2023-03-03T07:10:36.798Z,63.73
2023-03-03T07:15:40.490Z,68.00
2023-03-03T07:20:43.153Z,72.27
2023-03-03T07:25:47.083Z,60.87
2023-03-03T07:30:51.500Z,64.07
2023-03-03T07:35:56.930Z,69.83
2023-03-03T07:41:00.825Z,64.97
2023-03-03T07:46:28.080Z,62.47
2023-03-03T07:51:37.948Z,61.47
2023-03-03T07:56:40.592Z,67.83
2023-03-03T08:01:49.545Z,57.43
2023-03-03T08:06:53.895Z,55.87
2023-03-03T08:11:59.492Z,55.40
2023-03-03T08:17:04.161Z,53.17
2023-03-03T08:22:16.644Z,52.67
2023-03-03T08:27:19.231Z,51.80
2023-03-03T08:32:23.061Z,52.63
2023-03-03T08:37:25.138Z,50.47
2023-03-03T08:42:30.278Z,53.83
2023-03-03T08:47:33.831Z,51.93
2023-03-03T08:52:36.095Z,50.07
2023-03-03T08:57:39.327Z,54.30
2023-03-03T09:02:43.227Z,56.87
2023-03-03T09:07:47.959Z,48.10
2023-03-03T09:12:50.759Z,64.90
2023-03-03T09:17:54.637Z,54.53
2023-03-03T09:22:57.288Z,49.77
2023-03-03T09:28:00.234Z,51.53
2023-03-03T09:33:18.538Z,56.33
2023-03-03T09:38:28.271Z,56.37
2023-03-03T09:43:40.469Z,49.53
2023-03-03T09:49:04.397Z,47.13
2023-03-03T09:54:18.417Z,51.00
2023-03-03T09:59:31.871Z,52.20
2023-03-03T10:04:50.225Z,49.10
2023-03-03T10:10:19.260Z,53.93
2023-03-03T10:15:36.780Z,47.63
2023-03-03T10:20:55.568Z,43.87
2023-03-03T10:26:08.827Z,49.17
2023-03-03T10:31:28.260Z,43.93
2023-03-03T10:36:41.812Z,40.90
2023-03-03T10:41:55.111Z,43.13
2023-03-03T10:47:10.899Z,38.30
2023-03-03T10:52:34.120Z,45.23
2023-03-03T10:57:39.836Z,44.97
2023-03-03T11:02:54.447Z,48.03
2023-03-03T11:08:03.358Z,46.50
2023-03-03T11:13:15.791Z,46.57
2023-03-03T11:18:26.983Z,45.37
2023-03-03T11:24:02.248Z,48.67
2023-03-03T11:29:19.386Z,52.77
2023-03-03T11:34:48.652Z,46.97
2023-03-03T11:39:54.738Z,50.30
2023-03-03T11:45:02.999Z,47.70
2023-03-03T11:50:09.968Z,50.37
2023-03-03T11:55:18.768Z,52.10
2023-03-03T12:00:29.724Z,50.97
2023-03-03T12:05:43.510Z,53.57
2023-03-03T12:10:52.383Z,53.03
2023-03-03T12:16:02.446Z,52.33
2023-03-03T12:21:17.255Z,52.50
2023-03-03T12:26:27.086Z,55.03
2023-03-03T12:31:42.092Z,50.47
2023-03-03T12:37:17.946Z,52.53
2023-03-03T12:42:33.190Z,59.97
2023-03-03T12:47:40.561Z,55.83
2023-03-03T12:52:52.732Z,54.93
2023-03-03T12:58:06.042Z,57.60
2023-03-03T13:03:19.967Z,54.97
2023-03-03T13:08:43.023Z,54.80
2023-03-03T13:13:52.313Z,53.67
2023-03-03T13:19:00.055Z,56.47
2023-03-03T13:24:12.080Z,53.73
2023-03-03T13:29:21.063Z,57.83
2023-03-03T13:34:38.080Z,55.03
2023-03-03T13:39:44.313Z,63.90
2023-03-03T13:44:50.631Z,56.43
2023-03-03T13:50:05.814Z,62.00
2023-03-03T13:55:21.423Z,60.93
2023-03-03T14:00:38.742Z,58.17
2023-03-03T14:05:46.384Z,58.63
2023-03-03T14:10:55.706Z,62.47
2023-03-03T14:16:02.990Z,60.17
2023-03-03T14:21:12.556Z,64.47
2023-03-03T14:26:15.789Z,60.23
2023-03-03T14:31:24.245Z,62.63
2023-03-03T14:36:34.816Z,64.80
2023-03-03T14:41:40.758Z,66.57
2023-03-03T14:46:43.271Z,67.27
2023-03-03T14:51:48.539Z,60.07
2023-03-03T14:57:09.118Z,63.20
2023-03-03T15:02:36.322Z,63.17
2023-03-03T15:07:41.240Z,67.23
2023-03-03T15:12:43.929Z,63.10
2023-03-03T15:17:57.926Z,62.33
2023-03-03T15:23:19.830Z,65.47
2023-03-03T15:28:38.004Z,62.93
2023-03-03T15:33:48.903Z,63.97
2023-03-03T15:39:00.924Z,68.97
2023-03-03T15:44:16.215Z,62.47
2023-03-03T15:49:45.808Z,65.63
2023-03-03T15:54:59.860Z,63.97
2023-03-03T16:00:25.320Z,67.90
2023-03-03T16:05:41.058Z,69.20
2023-03-03T16:10:54.816Z,65.67
2023-03-03T16:16:08.938Z,63.47
2023-03-03T16:21:25.258Z,66.97
2023-03-03T16:26:38.444Z,66.33
2023-03-03T16:31:49.111Z,70.73
2023-03-03T16:37:02.797Z,67.60
2023-03-03T16:42:18.499Z,67.10
2023-03-03T16:47:33.158Z,68.67
2023-03-03T16:52:39.764Z,73.60
2023-03-03T16:57:53.089Z,72.47
2023-03-03T17:03:14.414Z,71.80
2023-03-03T17:08:35.537Z,69.47
2023-03-03T17:14:02.097Z,75.23
2023-03-03T17:19:24.001Z,73.07
2023-03-03T17:24:38.051Z,72.17
2023-03-03T17:30:00.104Z,78.17
2023-03-03T17:35:17.663Z,80.17
2023-03-03T17:40:43.782Z,65.87
2023-03-03T17:45:51.991Z,71.73
2023-03-03T17:51:22.987Z,81.50
2023-03-03T17:56:30.783Z,78.43
2023-03-03T18:01:51.035Z,73.20
2023-03-03T18:07:26.693Z,64.27
2023-03-03T18:12:42.350Z,65.07
2023-03-03T18:18:12.408Z,75.97
2023-03-03T18:23:42.547Z,67.07
2023-03-03T18:28:52.275Z,70.83
2023-03-03T18:34:11.548Z,70.40
2023-03-03T18:39:17.203Z,80.40
2023-03-03T18:44:32.700Z,77.33
2023-03-03T18:49:57.818Z,73.97
2023-03-03T18:55:26.156Z,78.00
2023-03-03T19:00:32.314Z,82.43
2023-03-03T19:05:49.875Z,76.13
2023-03-03T19:10:59.400Z,63.70
2023-03-03T19:16:04.206Z,76.77
2023-03-03T19:21:21.950Z,72.03
2023-03-03T19:27:07.249Z,75.20
2023-03-03T19:32:33.396Z,69.63
2023-03-03T19:37:49.862Z,83.20
2023-03-03T19:43:01.946Z,79.03
2023-03-03T19:48:15.146Z,78.97
2023-03-03T19:53:32.613Z,80.70
2023-03-03T19:58:47.279Z,82.57
2023-03-03T20:04:43.035Z,77.50
2023-03-03T20:09:58.702Z,83.30
2023-03-03T20:15:13.124Z,80.80
2023-03-03T20:20:33.815Z,81.23
2023-03-03T20:25:43.313Z,85.60
2023-03-03T20:31:01.735Z,89.77
2023-03-03T20:36:16.427Z,83.57
2023-03-03T20:41:32.618Z,84.63
2023-03-03T20:46:44.557Z,105.77
2023-03-03T20:51:57.506Z,88.83
2023-03-03T20:57:11.682Z,93.13
2023-03-03T21:02:24.710Z,85.03
2023-03-03T21:07:29.508Z,93.87
2023-03-03T21:12:37.821Z,90.53
2023-03-03T21:17:42.607Z,79.43
2023-03-03T21:22:46.564Z,88.40
2023-03-03T21:27:50.773Z,83.40
2023-03-03T21:32:53.913Z,77.87
2023-03-03T21:37:58.326Z,73.73
2023-03-03T21:43:02.582Z,75.10
2023-03-03T21:48:06.658Z,79.70
2023-03-03T21:53:09.145Z,81.17
2023-03-03T21:58:12.918Z,83.17
2023-03-03T22:03:17.071Z,78.77
2023-03-03T22:08:22.830Z,92.93
2023-03-03T22:13:27.846Z,73.17
2023-03-03T22:18:30.280Z,67.83
2023-03-03T22:23:32.502Z,76.37
2023-03-03T22:28:36.209Z,84.23
2023-03-03T22:33:38.221Z,74.67
2023-03-03T22:38:40.758Z,85.70
2023-03-03T22:43:44.266Z,84.17
2023-03-03T22:48:46.383Z,75.97
2023-03-03T22:53:48.413Z,76.07
2023-03-03T22:59:57.808Z,81.57
2023-03-03T23:05:51.664Z,82.10
2023-03-03T23:10:54.452Z,82.53
2023-03-03T23:16:00.401Z,79.97
2023-03-03T23:21:02.538Z,80.03
2023-03-03T23:26:05.057Z,75.70
2023-03-03T23:31:08.881Z,74.50
2023-03-03T23:36:11.502Z,79.37
2023-03-03T23:41:13.624Z,84.87
2023-03-03T23:46:17.321Z,83.37
2023-03-03T23:51:19.693Z,85.13
2023-03-03T23:56:22.029Z,79.30
